Airfield :
LOGIN :

Register | Disclaimer

   EN    FR    IT 

 










Legend :    VFR   Marginal VFR   IFR   Intensive IFR   Very Intensive IFR
Visi :
Ceiling :
>= 8 km
>= 3000ft
5 to 8 km
1000 to 3000 ft
1500m to 5 km
500 to 1000 ft
800 to 1500m
200 to 500 ft
< 800m
< 200 ft
Symbols :   Thunderstorms  Fog  Heavy snow  Heavy precipitations  Wind > 20 kt
SIGMETs :     Misc.  Thunderstorms  Icing  Turbulence  Mountain Waves  Volcanic Ashes







- Airport Elevation : 699 ft
- IATA code : PAD


EDLP - Paderborn Lippstadt

CURRENT METAR :
  • 250820Z 25014KT 220V280 9999 -SHRA FEW015 BKN048 11/09 Q1008

EXPIRED METARs :
  • 250750Z 26014G26KT 220V310 3500 -SHRA SCT015 BKN020 13/09 Q1008
  • 250720Z 25014G25KT 9999 -SHRA SCT020 SCT035 13/09 Q1007
  • 250650Z 25015G27KT 210V290 9999 SCT028 14/09 Q1007
  • 250620Z 24013KT 9999 SCT031 14/09 Q1007
  • 250550Z 23013KT 9999 SCT029 14/09 Q1007

TAF COR TAF EDLP
Valid from the 25 at 06:00 until the 26 at 06:00 UTC


250536Z 2506/2606 25015KT 9999 BKN020
PROB30
TEMPO 2506/2509 28015G30KT SHRA BKN015TCU
TEMPO 2509/2513 28020G35KT
PROB30
TEMPO 2513/2517 28020G30KT SHRA BKN025TCU
BECMG 2517/2519 24008KT
PROB40
TEMPO 2603/2606 28015G25KT SHRA BKN015CB
No reported NOTAMs for that airfield.



MET'MAP, your aeronautical weather chart ! - Copyright ORBIFLY December 2007 - Disclaimer

ORBIFLY MET'MAP TEAM :

Programming & Development : Alexandra Zaïnal
Concept & Development : Baudouin d'Aumeries
Co-Development & Prog : Marc-Olivier Méhu
Technical & hardware support : Manuel Goepfert

Contact : metmap@orbifly.com




SOURCES & CREDITS :

   NOAA